sensor_id;sensor_type;location;lat;lon;timestamp;pressure;altitude;pressure_sealevel;temperature;humidity
72370;BME280;60343;-32.030;115.880;2023-04-15T00:01:18;102205.44;;;13.73;81.55
72370;BME280;60343;-32.030;115.880;2023-04-15T00:03:53;102203.00;;;13.88;82.10
72370;BME280;60343;-32.030;115.880;2023-04-15T00:06:28;102203.28;;;14.03;81.88
72370;BME280;60343;-32.030;115.880;2023-04-15T00:09:02;102210.56;;;14.10;80.13
72370;BME280;60343;-32.030;115.880;2023-04-15T00:11:43;102215.41;;;14.07;79.63
72370;BME280;60343;-32.030;115.880;2023-04-15T00:14:18;102224.16;;;14.09;79.52
72370;BME280;60343;-32.030;115.880;2023-04-15T00:16:52;102231.88;;;14.04;78.99
72370;BME280;60343;-32.030;115.880;2023-04-15T00:19:27;102247.19;;;14.03;79.39
72370;BME280;60343;-32.030;115.880;2023-04-15T00:22:02;102247.03;;;14.05;79.47
72370;BME280;60343;-32.030;115.880;2023-04-15T00:24:36;102236.63;;;14.10;80.49
72370;BME280;60343;-32.030;115.880;2023-04-15T00:27:16;102225.22;;;14.16;77.72
72370;BME280;60343;-32.030;115.880;2023-04-15T00:29:51;102222.91;;;14.29;78.52
72370;BME280;60343;-32.030;115.880;2023-04-15T00:32:25;102231.66;;;14.65;79.08
72370;BME280;60343;-32.030;115.880;2023-04-15T00:35:00;102225.31;;;14.90;77.62
72370;BME280;60343;-32.030;115.880;2023-04-15T00:37:34;102230.78;;;15.55;74.50
72370;BME280;60343;-32.030;115.880;2023-04-15T00:40:12;102233.31;;;16.20;72.20
72370;BME280;60343;-32.030;115.880;2023-04-15T00:42:52;102228.16;;;16.49;70.52
72370;BME280;60343;-32.030;115.880;2023-04-15T00:45:27;102221.44;;;16.76;68.23
72370;BME280;60343;-32.030;115.880;2023-04-15T00:48:02;102229.16;;;16.87;68.96
72370;BME280;60343;-32.030;115.880;2023-04-15T00:50:37;102228.06;;;16.96;68.66
72370;BME280;60343;-32.030;115.880;2023-04-15T00:53:11;102245.00;;;16.90;67.42
72370;BME280;60343;-32.030;115.880;2023-04-15T00:55:46;102242.75;;;17.02;68.43
72370;BME280;60343;-32.030;115.880;2023-04-15T00:58:26;102249.31;;;17.07;68.39
72370;BME280;60343;-32.030;115.880;2023-04-15T01:01:01;102246.59;;;17.07;67.87
72370;BME280;60343;-32.030;115.880;2023-04-15T01:03:35;102259.00;;;17.25;65.58
72370;BME280;60343;-32.030;115.880;2023-04-15T01:06:10;102260.50;;;17.27;65.81
72370;BME280;60343;-32.030;115.880;2023-04-15T01:08:45;102268.13;;;17.24;66.54
72370;BME280;60343;-32.030;115.880;2023-04-15T01:11:19;102273.19;;;17.27;66.02
72370;BME280;60343;-32.030;115.880;2023-04-15T01:14:00;102279.19;;;17.37;66.91
72370;BME280;60343;-32.030;115.880;2023-04-15T01:16:34;102277.09;;;17.47;64.79
72370;BME280;60343;-32.030;115.880;2023-04-15T01:19:10;102285.22;;;17.47;65.85
72370;BME280;60343;-32.030;115.880;2023-04-15T01:21:46;102288.59;;;17.49;66.46
72370;BME280;60343;-32.030;115.880;2023-04-15T01:24:21;102275.34;;;17.54;65.90
72370;BME280;60343;-32.030;115.880;2023-04-15T01:27:01;102282.69;;;17.68;65.20
72370;BME280;60343;-32.030;115.880;2023-04-15T01:29:38;102266.84;;;17.80;67.18
72370;BME280;60343;-32.030;115.880;2023-04-15T01:32:12;102269.38;;;17.96;66.87
72370;BME280;60343;-32.030;115.880;2023-04-15T01:34:47;102268.28;;;18.05;64.78
72370;BME280;60343;-32.030;115.880;2023-04-15T01:37:21;102257.72;;;18.10;64.98
72370;BME280;60343;-32.030;115.880;2023-04-15T01:39:56;102255.88;;;18.11;64.07
72370;BME280;60343;-32.030;115.880;2023-04-15T01:42:36;102245.03;;;18.11;65.26
72370;BME280;60343;-32.030;115.880;2023-04-15T01:45:11;102246.09;;;18.31;65.00
72370;BME280;60343;-32.030;115.880;2023-04-15T01:47:46;102253.97;;;18.40;64.52
72370;BME280;60343;-32.030;115.880;2023-04-15T01:50:20;102248.94;;;18.88;64.31
72370;BME280;60343;-32.030;115.880;2023-04-15T01:52:55;102246.00;;;20.02;61.61
72370;BME280;60343;-32.030;115.880;2023-04-15T01:55:29;102251.72;;;20.96;57.49
72370;BME280;60343;-32.030;115.880;2023-04-15T01:58:09;102255.78;;;21.59;55.39
72370;BME280;60343;-32.030;115.880;2023-04-15T02:00:44;102252.44;;;21.77;53.63
72370;BME280;60343;-32.030;115.880;2023-04-15T02:03:18;102255.16;;;21.70;53.32
72370;BME280;60343;-32.030;115.880;2023-04-15T02:05:53;102246.97;;;21.83;52.53
72370;BME280;60343;-32.030;115.880;2023-04-15T02:08:27;102249.09;;;21.95;51.71
72370;BME280;60343;-32.030;115.880;2023-04-15T02:11:02;102247.59;;;21.92;52.44
72370;BME280;60343;-32.030;115.880;2023-04-15T02:13:42;102251.13;;;22.25;53.15
72370;BME280;60343;-32.030;115.880;2023-04-15T02:16:17;102250.28;;;22.18;50.18
72370;BME280;60343;-32.030;115.880;2023-04-15T02:18:52;102245.97;;;23.00;51.99
72370;BME280;60343;-32.030;115.880;2023-04-15T02:21:27;102240.50;;;23.00;50.44
72370;BME280;60343;-32.030;115.880;2023-04-15T02:24:02;102243.78;;;22.26;51.06
72370;BME280;60343;-32.030;115.880;2023-04-15T02:26:36;102241.31;;;21.85;52.16
72370;BME280;60343;-32.030;115.880;2023-04-15T02:29:16;102241.75;;;21.29;53.91
72370;BME280;60343;-32.030;115.880;2023-04-15T02:31:51;102240.81;;;20.96;54.97
72370;BME280;60343;-32.030;115.880;2023-04-15T02:34:25;102241.72;;;21.23;53.08
72370;BME280;60343;-32.030;115.880;2023-04-15T02:37:00;102242.59;;;21.36;54.91
72370;BME280;60343;-32.030;115.880;2023-04-15T02:39:35;102233.31;;;22.03;54.61
72370;BME280;60343;-32.030;115.880;2023-04-15T02:42:09;102236.25;;;22.66;53.23
72370;BME280;60343;-32.030;115.880;2023-04-15T02:44:49;102226.91;;;23.25;50.61
72370;BME280;60343;-32.030;115.880;2023-04-15T02:47:24;102226.44;;;23.59;48.93
72370;BME280;60343;-32.030;115.880;2023-04-15T02:49:59;102227.84;;;23.68;49.18
72370;BME280;60343;-32.030;115.880;2023-04-15T02:52:33;102234.06;;;23.19;49.83
72370;BME280;60343;-32.030;115.880;2023-04-15T02:55:09;102230.53;;;22.87;50.14
72370;BME280;60343;-32.030;115.880;2023-04-15T02:57:44;102231.56;;;22.86;50.86
72370;BME280;60343;-32.030;115.880;2023-04-15T03:00:24;102227.47;;;23.02;50.31
72370;BME280;60343;-32.030;115.880;2023-04-15T03:03:01;102216.00;;;22.93;50.22
72370;BME280;60343;-32.030;115.880;2023-04-15T03:05:35;102220.47;;;23.13;48.25
72370;BME280;60343;-32.030;115.880;2023-04-15T03:08:11;102220.16;;;22.96;49.85
72370;BME280;60343;-32.030;115.880;2023-04-15T03:10:45;102206.44;;;22.64;49.79
72370;BME280;60343;-32.030;115.880;2023-04-15T03:13:20;102204.28;;;22.35;51.25
72370;BME280;60343;-32.030;115.880;2023-04-15T03:16:01;102200.97;;;22.20;51.54
72370;BME280;60343;-32.030;115.880;2023-04-15T03:18:35;102203.06;;;22.24;52.29
72370;BME280;60343;-32.030;115.880;2023-04-15T03:21:09;102186.19;;;22.47;52.21
72370;BME280;60343;-32.030;115.880;2023-04-15T03:23:44;102199.88;;;23.10;50.75
72370;BME280;60343;-32.030;115.880;2023-04-15T03:26:26;102186.06;;;23.30;50.28
72370;BME280;60343;-32.030;115.880;2023-04-15T03:29:01;102195.81;;;23.19;49.03
72370;BME280;60343;-32.030;115.880;2023-04-15T03:31:41;102202.16;;;22.88;50.55
72370;BME280;60343;-32.030;115.880;2023-04-15T03:34:16;102195.19;;;22.92;50.70
72370;BME280;60343;-32.030;115.880;2023-04-15T03:36:50;102189.03;;;23.03;50.46
72370;BME280;60343;-32.030;115.880;2023-04-15T03:39:25;102188.91;;;22.92;49.99
72370;BME280;60343;-32.030;115.880;2023-04-15T03:42:00;102191.69;;;22.34;51.85
72370;BME280;60343;-32.030;115.880;2023-04-15T03:44:34;102191.97;;;22.64;51.73
72370;BME280;60343;-32.030;115.880;2023-04-15T03:47:14;102178.28;;;23.08;51.16
72370;BME280;60343;-32.030;115.880;2023-04-15T03:49:49;102178.50;;;23.32;49.37
72370;BME280;60343;-32.030;115.880;2023-04-15T03:52:23;102178.22;;;23.65;49.90
72370;BME280;60343;-32.030;115.880;2023-04-15T03:54:58;102175.50;;;24.01;47.78
72370;BME280;60343;-32.030;115.880;2023-04-15T03:57:32;102166.25;;;23.84;48.22
72370;BME280;60343;-32.030;115.880;2023-04-15T04:00:08;102167.13;;;23.60;48.84
72370;BME280;60343;-32.030;115.880;2023-04-15T04:02:49;102165.53;;;22.96;50.52
72370;BME280;60343;-32.030;115.880;2023-04-15T04:05:23;102164.34;;;22.47;51.86
72370;BME280;60343;-32.030;115.880;2023-04-15T04:07:58;102164.19;;;22.36;53.29
72370;BME280;60343;-32.030;115.880;2023-04-15T04:10:32;102166.09;;;22.29;53.04
72370;BME280;60343;-32.030;115.880;2023-04-15T04:13:07;102159.00;;;22.28;53.79
72370;BME280;60343;-32.030;115.880;2023-04-15T04:15:42;102158.25;;;22.01;53.87
72370;BME280;60343;-32.030;115.880;2023-04-15T04:18:22;102155.66;;;22.19;52.00
72370;BME280;60343;-32.030;115.880;2023-04-15T04:20:56;102158.41;;;22.12;53.83
72370;BME280;60343;-32.030;115.880;2023-04-15T04:23:31;102161.16;;;22.12;53.48
72370;BME280;60343;-32.030;115.880;2023-04-15T04:26:06;102153.63;;;22.08;52.66
72370;BME280;60343;-32.030;115.880;2023-04-15T04:28:43;102147.25;;;22.27;52.82
72370;BME280;60343;-32.030;115.880;2023-04-15T04:31:18;102146.38;;;22.33;53.12
72370;BME280;60343;-32.030;115.880;2023-04-15T04:33:58;102135.72;;;22.18;52.60
72370;BME280;60343;-32.030;115.880;2023-04-15T04:36:32;102135.97;;;22.10;52.39
72370;BME280;60343;-32.030;115.880;2023-04-15T04:39:07;102125.31;;;22.02;52.98
72370;BME280;60343;-32.030;115.880;2023-04-15T04:41:41;102118.38;;;21.93;52.96
72370;BME280;60343;-32.030;115.880;2023-04-15T04:44:16;102120.31;;;21.86;53.30
72370;BME280;60343;-32.030;115.880;2023-04-15T04:46:51;102124.50;;;21.82;52.74
72370;BME280;60343;-32.030;115.880;2023-04-15T04:49:31;102118.03;;;21.63;54.47
72370;BME280;60343;-32.030;115.880;2023-04-15T04:52:05;102117.63;;;21.60;54.01
72370;BME280;60343;-32.030;115.880;2023-04-15T04:54:40;102107.81;;;21.46;54.83
72370;BME280;60343;-32.030;115.880;2023-04-15T04:57:15;102104.28;;;21.25;56.91
72370;BME280;60343;-32.030;115.880;2023-04-15T04:59:49;102101.56;;;21.25;55.99
72370;BME280;60343;-32.030;115.880;2023-04-15T05:02:24;102098.84;;;21.25;55.97
72370;BME280;60343;-32.030;115.880;2023-04-15T05:05:05;102102.38;;;20.99;56.31
72370;BME280;60343;-32.030;115.880;2023-04-15T05:07:39;102103.84;;;20.89;57.70
72370;BME280;60343;-32.030;115.880;2023-04-15T05:10:15;102103.22;;;20.87;55.23
72370;BME280;60343;-32.030;115.880;2023-04-15T05:12:50;102100.47;;;20.74;57.09
72370;BME280;60343;-32.030;115.880;2023-04-15T05:15:24;102098.78;;;20.60;57.50
72370;BME280;60343;-32.030;115.880;2023-04-15T05:17:59;102093.75;;;20.63;56.84
72370;BME280;60343;-32.030;115.880;2023-04-15T05:20:39;102092.09;;;20.69;57.07
72370;BME280;60343;-32.030;115.880;2023-04-15T05:23:14;102096.91;;;20.73;56.79
72370;BME280;60343;-32.030;115.880;2023-04-15T05:25:49;102088.34;;;20.76;56.77
72370;BME280;60343;-32.030;115.880;2023-04-15T05:28:23;102082.91;;;20.89;56.99
72370;BME280;60343;-32.030;115.880;2023-04-15T05:30:58;102069.09;;;21.24;56.45
72370;BME280;60343;-32.030;115.880;2023-04-15T05:33:33;102072.84;;;21.29;55.72
72370;BME280;60343;-32.030;115.880;2023-04-15T05:36:14;102071.81;;;21.30;55.74
72370;BME280;60343;-32.030;115.880;2023-04-15T05:38:48;102072.03;;;21.16;56.82
72370;BME280;60343;-32.030;115.880;2023-04-15T05:41:22;102075.81;;;21.21;56.01
72370;BME280;60343;-32.030;115.880;2023-04-15T05:43:57;102068.03;;;21.05;57.70
72370;BME280;60343;-32.030;115.880;2023-04-15T05:46:32;102067.19;;;21.24;56.63
72370;BME280;60343;-32.030;115.880;2023-04-15T05:49:06;102053.31;;;21.52;56.40
72370;BME280;60343;-32.030;115.880;2023-04-15T05:51:47;102042.78;;;22.13;53.25
72370;BME280;60343;-32.030;115.880;2023-04-15T05:54:21;102044.66;;;22.82;52.26
72370;BME280;60343;-32.030;115.880;2023-04-15T05:56:56;102051.16;;;22.81;52.24
72370;BME280;60343;-32.030;115.880;2023-04-15T05:59:31;102040.00;;;22.58;53.25
72370;BME280;60343;-32.030;115.880;2023-04-15T06:02:06;102041.91;;;22.19;54.50
72370;BME280;60343;-32.030;115.880;2023-04-15T06:04:40;102040.16;;;21.94;54.39
72370;BME280;60343;-32.030;115.880;2023-04-15T06:07:20;102041.00;;;21.36;56.69
72370;BME280;60343;-32.030;115.880;2023-04-15T06:09:55;102044.81;;;21.22;58.04
72370;BME280;60343;-32.030;115.880;2023-04-15T06:12:29;102045.81;;;21.28;57.42
72370;BME280;60343;-32.030;115.880;2023-04-15T06:15:04;102045.06;;;21.72;58.08
72370;BME280;60343;-32.030;115.880;2023-04-15T06:17:39;102041.03;;;21.81;57.94
72370;BME280;60343;-32.030;115.880;2023-04-15T06:20:13;102038.28;;;21.88;57.58
72370;BME280;60343;-32.030;115.880;2023-04-15T06:22:53;102038.28;;;21.88;57.11
72370;BME280;60343;-32.030;115.880;2023-04-15T06:25:28;102040.59;;;21.97;57.68
72370;BME280;60343;-32.030;115.880;2023-04-15T06:28:03;102039.44;;;22.18;55.77
72370;BME280;60343;-32.030;115.880;2023-04-15T06:30:37;102040.78;;;22.02;56.46
72370;BME280;60343;-32.030;115.880;2023-04-15T06:33:12;102029.31;;;22.18;56.92
72370;BME280;60343;-32.030;115.880;2023-04-15T06:35:46;102032.53;;;22.40;56.34
72370;BME280;60343;-32.030;115.880;2023-04-15T06:38:26;102024.16;;;22.42;54.61
72370;BME280;60343;-32.030;115.880;2023-04-15T06:41:01;102026.25;;;22.40;54.74
72370;BME280;60343;-32.030;115.880;2023-04-15T06:43:39;102025.03;;;22.36;55.41
72370;BME280;60343;-32.030;115.880;2023-04-15T06:46:13;102030.06;;;22.63;54.83
72370;BME280;60343;-32.030;115.880;2023-04-15T06:48:48;102036.34;;;22.71;53.47
72370;BME280;60343;-32.030;115.880;2023-04-15T06:51:22;102031.53;;;22.91;53.58
72370;BME280;60343;-32.030;115.880;2023-04-15T06:54:03;102034.94;;;22.86;52.80
72370;BME280;60343;-32.030;115.880;2023-04-15T06:56:38;102036.63;;;22.87;53.46
72370;BME280;60343;-32.030;115.880;2023-04-15T06:59:12;102035.94;;;22.92;52.74
72370;BME280;60343;-32.030;115.880;2023-04-15T07:01:47;102039.22;;;23.00;53.37
72370;BME280;60343;-32.030;115.880;2023-04-15T07:04:21;102041.75;;;23.20;52.96
72370;BME280;60343;-32.030;115.880;2023-04-15T07:06:56;102042.06;;;23.12;52.16
72370;BME280;60343;-32.030;115.880;2023-04-15T07:09:36;102042.34;;;23.04;52.96
72370;BME280;60343;-32.030;115.880;2023-04-15T07:12:11;102034.31;;;22.84;54.01
72370;BME280;60343;-32.030;115.880;2023-04-15T07:14:46;102037.00;;;22.91;54.34
72370;BME280;60343;-32.030;115.880;2023-04-15T07:17:21;102040.56;;;22.91;54.29
72370;BME280;60343;-32.030;115.880;2023-04-15T07:19:55;102048.63;;;23.04;53.63
72370;BME280;60343;-32.030;115.880;2023-04-15T07:22:30;102045.41;;;22.89;53.43
72370;BME280;60343;-32.030;115.880;2023-04-15T07:25:11;102036.75;;;22.43;54.72
72370;BME280;60343;-32.030;115.880;2023-04-15T07:27:45;102036.63;;;22.56;55.47
72370;BME280;60343;-32.030;115.880;2023-04-15T07:30:20;102036.25;;;22.52;54.29
72370;BME280;60343;-32.030;115.880;2023-04-15T07:32:55;102030.03;;;22.39;53.82
72370;BME280;60343;-32.030;115.880;2023-04-15T07:35:30;102028.94;;;22.15;50.92
72370;BME280;60343;-32.030;115.880;2023-04-15T07:38:04;102031.13;;;22.38;50.87
72370;BME280;60343;-32.030;115.880;2023-04-15T07:40:45;102028.44;;;21.87;51.69
72370;BME280;60343;-32.030;115.880;2023-04-15T07:43:20;102036.16;;;21.90;52.02
72370;BME280;60343;-32.030;115.880;2023-04-15T07:45:54;102036.38;;;21.88;51.52
72370;BME280;60343;-32.030;115.880;2023-04-15T07:48:29;102035.34;;;21.89;52.02
72370;BME280;60343;-32.030;115.880;2023-04-15T07:51:04;102045.81;;;21.92;52.03
72370;BME280;60343;-32.030;115.880;2023-04-15T07:53:39;102047.72;;;21.85;51.43
72370;BME280;60343;-32.030;115.880;2023-04-15T07:56:19;102043.97;;;21.79;52.62
72370;BME280;60343;-32.030;115.880;2023-04-15T07:58:54;102049.38;;;21.99;51.70
72370;BME280;60343;-32.030;115.880;2023-04-15T08:01:29;102050.84;;;21.89;51.68
72370;BME280;60343;-32.030;115.880;2023-04-15T08:04:03;102047.63;;;21.54;53.42
72370;BME280;60343;-32.030;115.880;2023-04-15T08:06:38;102043.47;;;21.45;54.06
72370;BME280;60343;-32.030;115.880;2023-04-15T08:09:16;102044.31;;;21.38;54.22
72370;BME280;60343;-32.030;115.880;2023-04-15T08:12:19;102049.81;;;21.19;55.57
72370;BME280;60343;-32.030;115.880;2023-04-15T08:15:16;102041.84;;;21.24;55.03
72370;BME280;60343;-32.030;115.880;2023-04-15T08:17:51;102048.34;;;21.23;55.80
72370;BME280;60343;-32.030;115.880;2023-04-15T08:20:27;102044.97;;;21.08;57.96
72370;BME280;60343;-32.030;115.880;2023-04-15T08:23:01;102045.41;;;21.18;56.56
72370;BME280;60343;-32.030;115.880;2023-04-15T08:25:36;102037.69;;;21.02;57.91
72370;BME280;60343;-32.030;115.880;2023-04-15T08:28:16;102038.91;;;20.92;59.52
72370;BME280;60343;-32.030;115.880;2023-04-15T08:30:52;102036.84;;;20.75;60.72
72370;BME280;60343;-32.030;115.880;2023-04-15T08:33:27;102033.50;;;20.66;60.79
72370;BME280;60343;-32.030;115.880;2023-04-15T08:36:01;102031.38;;;20.48;61.59
72370;BME280;60343;-32.030;115.880;2023-04-15T08:38:36;102028.44;;;20.43;61.98
72370;BME280;60343;-32.030;115.880;2023-04-15T08:41:16;102030.97;;;20.32;63.04
72370;BME280;60343;-32.030;115.880;2023-04-15T08:44:02;102026.28;;;20.19;63.53
72370;BME280;60343;-32.030;115.880;2023-04-15T08:46:37;102032.53;;;20.13;63.21
72370;BME280;60343;-32.030;115.880;2023-04-15T08:49:13;102030.25;;;20.10;62.90
72370;BME280;60343;-32.030;115.880;2023-04-15T08:51:49;102029.59;;;20.08;63.53
72370;BME280;60343;-32.030;115.880;2023-04-15T08:54:23;102031.06;;;20.04;64.53
72370;BME280;60343;-32.030;115.880;2023-04-15T08:56:58;102023.09;;;19.96;64.43
72370;BME280;60343;-32.030;115.880;2023-04-15T08:59:39;102029.72;;;19.87;64.58
72370;BME280;60343;-32.030;115.880;2023-04-15T09:02:14;102022.16;;;19.69;64.82
72370;BME280;60343;-32.030;115.880;2023-04-15T09:04:52;102021.50;;;19.67;64.93
72370;BME280;60343;-32.030;115.880;2023-04-15T09:07:27;102015.59;;;19.57;65.03
72370;BME280;60343;-32.030;115.880;2023-04-15T09:10:02;102023.94;;;19.49;65.17
72370;BME280;60343;-32.030;115.880;2023-04-15T09:12:37;102015.09;;;19.40;65.28
72370;BME280;60343;-32.030;115.880;2023-04-15T09:15:17;102015.94;;;19.41;65.56
72370;BME280;60343;-32.030;115.880;2023-04-15T09:17:52;102025.06;;;19.33;65.83
72370;BME280;60343;-32.030;115.880;2023-04-15T09:20:27;102017.94;;;19.25;65.77
72370;BME280;60343;-32.030;115.880;2023-04-15T09:23:11;102025.00;;;19.20;65.49
72370;BME280;60343;-32.030;115.880;2023-04-15T09:25:46;102022.72;;;19.23;64.93
72370;BME280;60343;-32.030;115.880;2023-04-15T09:28:27;102032.84;;;19.43;62.69
72370;BME280;60343;-32.030;115.880;2023-04-15T09:31:08;102030.06;;;19.29;63.74
72370;BME280;60343;-32.030;115.880;2023-04-15T09:33:55;102030.53;;;19.05;64.74
72370;BME280;60343;-32.030;115.880;2023-04-15T09:36:29;102031.94;;;18.95;65.33
72370;BME280;60343;-32.030;115.880;2023-04-15T09:39:10;102038.13;;;18.89;65.71
72370;BME280;60343;-32.030;115.880;2023-04-15T09:41:44;102034.50;;;18.81;66.00
72370;BME280;60343;-32.030;115.880;2023-04-15T09:44:25;102036.19;;;18.82;65.94
72370;BME280;60343;-32.030;115.880;2023-04-15T09:47:05;102029.25;;;18.73;66.05
72370;BME280;60343;-32.030;115.880;2023-04-15T09:49:55;102030.44;;;18.64;66.51
72370;BME280;60343;-32.030;115.880;2023-04-15T09:52:30;102027.28;;;18.46;66.81
72370;BME280;60343;-32.030;115.880;2023-04-15T09:55:06;102024.84;;;18.30;67.11
72370;BME280;60343;-32.030;115.880;2023-04-15T09:57:41;102031.16;;;18.16;67.62
72370;BME280;60343;-32.030;115.880;2023-04-15T10:00:16;102037.47;;;18.01;67.90
72370;BME280;60343;-32.030;115.880;2023-04-15T10:02:56;102032.31;;;18.07;68.93
72370;BME280;60343;-32.030;115.880;2023-04-15T10:05:31;102046.66;;;18.00;68.99
72370;BME280;60343;-32.030;115.880;2023-04-15T10:08:06;102049.00;;;17.89;69.36
72370;BME280;60343;-32.030;115.880;2023-04-15T10:10:41;102049.66;;;17.76;69.68
72370;BME280;60343;-32.030;115.880;2023-04-15T10:13:17;102048.75;;;17.69;70.13
72370;BME280;60343;-32.030;115.880;2023-04-15T10:15:56;102053.69;;;17.66;71.36
72370;BME280;60343;-32.030;115.880;2023-04-15T10:18:39;102048.84;;;17.61;71.86
72370;BME280;60343;-32.030;115.880;2023-04-15T10:21:14;102057.63;;;17.63;71.74
72370;BME280;60343;-32.030;115.880;2023-04-15T10:23:53;102053.31;;;17.54;72.51
72370;BME280;60343;-32.030;115.880;2023-04-15T10:26:28;102059.19;;;17.43;72.69
72370;BME280;60343;-32.030;115.880;2023-04-15T10:29:03;102056.75;;;17.33;74.03
72370;BME280;60343;-32.030;115.880;2023-04-15T10:31:38;102057.03;;;17.24;73.71
72370;BME280;60343;-32.030;115.880;2023-04-15T10:34:19;102058.78;;;17.16;73.64
72370;BME280;60343;-32.030;115.880;2023-04-15T10:36:57;102065.59;;;17.12;73.82
72370;BME280;60343;-32.030;115.880;2023-04-15T10:39:43;102067.34;;;17.05;75.07
72370;BME280;60343;-32.030;115.880;2023-04-15T10:42:19;102066.25;;;17.00;75.06
72370;BME280;60343;-32.030;115.880;2023-04-15T10:44:56;102069.69;;;16.94;75.27
72370;BME280;60343;-32.030;115.880;2023-04-15T10:47:37;102075.28;;;16.92;75.52
72370;BME280;60343;-32.030;115.880;2023-04-15T10:50:21;102073.22;;;16.94;76.32
72370;BME280;60343;-32.030;115.880;2023-04-15T10:52:57;102080.78;;;16.99;75.63
72370;BME280;60343;-32.030;115.880;2023-04-15T10:55:33;102075.84;;;17.02;75.48
72370;BME280;60343;-32.030;115.880;2023-04-15T10:58:09;102081.38;;;17.09;75.93
72370;BME280;60343;-32.030;115.880;2023-04-15T11:00:50;102076.03;;;17.15;76.06
72370;BME280;60343;-32.030;115.880;2023-04-15T11:03:36;102082.03;;;17.26;76.11
72370;BME280;60343;-32.030;115.880;2023-04-15T11:06:17;102077.97;;;17.30;75.75
72370;BME280;60343;-32.030;115.880;2023-04-15T11:08:56;102075.53;;;17.35;75.11
72370;BME280;60343;-32.030;115.880;2023-04-15T11:14:40;102087.16;;;17.35;75.34
72370;BME280;60343;-32.030;115.880;2023-04-15T11:17:27;102081.75;;;17.35;75.96
72370;BME280;60343;-32.030;115.880;2023-04-15T11:20:01;102086.16;;;17.36;75.89
72370;BME280;60343;-32.030;115.880;2023-04-15T11:22:47;102079.91;;;17.36;76.37
72370;BME280;60343;-32.030;115.880;2023-04-15T11:25:25;102090.44;;;17.31;76.29
72370;BME280;60343;-32.030;115.880;2023-04-15T11:28:00;102088.78;;;17.30;75.99
72370;BME280;60343;-32.030;115.880;2023-04-15T11:30:36;102091.50;;;17.30;76.48
72370;BME280;60343;-32.030;115.880;2023-04-15T11:33:11;102095.13;;;17.37;76.06
72370;BME280;60343;-32.030;115.880;2023-04-15T11:35:45;102095.22;;;17.43;76.60
72370;BME280;60343;-32.030;115.880;2023-04-15T11:38:26;102099.06;;;17.49;76.91
72370;BME280;60343;-32.030;115.880;2023-04-15T11:41:00;102102.06;;;17.54;76.62
72370;BME280;60343;-32.030;115.880;2023-04-15T11:43:35;102093.84;;;17.62;75.75
72370;BME280;60343;-32.030;115.880;2023-04-15T11:46:09;102096.19;;;17.65;76.35
72370;BME280;60343;-32.030;115.880;2023-04-15T11:48:45;102098.53;;;17.68;76.13
72370;BME280;60343;-32.030;115.880;2023-04-15T11:51:20;102099.19;;;17.70;76.38
72370;BME280;60343;-32.030;115.880;2023-04-15T11:54:00;102098.34;;;17.70;76.51
72370;BME280;60343;-32.030;115.880;2023-04-15T11:56:34;102096.28;;;17.72;76.64
72370;BME280;60343;-32.030;115.880;2023-04-15T11:59:09;102094.50;;;17.79;76.10
72370;BME280;60343;-32.030;115.880;2023-04-15T12:01:43;102098.91;;;17.80;76.10
72370;BME280;60343;-32.030;115.880;2023-04-15T12:04:19;102100.84;;;17.86;76.26
72370;BME280;60343;-32.030;115.880;2023-04-15T12:06:53;102101.31;;;17.89;76.84
72370;BME280;60343;-32.030;115.880;2023-04-15T12:09:37;102095.69;;;17.91;76.66
72370;BME280;60343;-32.030;115.880;2023-04-15T12:12:12;102108.03;;;17.93;76.35
72370;BME280;60343;-32.030;115.880;2023-04-15T12:14:46;102104.31;;;17.94;76.34
72370;BME280;60343;-32.030;115.880;2023-04-15T12:17:23;102103.47;;;17.94;76.80
72370;BME280;60343;-32.030;115.880;2023-04-15T12:19:58;102103.91;;;17.97;76.65
72370;BME280;60343;-32.030;115.880;2023-04-15T12:22:37;102102.72;;;18.00;76.48
72370;BME280;60343;-32.030;115.880;2023-04-15T12:25:17;102101.66;;;18.01;76.79
72370;BME280;60343;-32.030;115.880;2023-04-15T12:27:52;102102.31;;;18.03;76.97
72370;BME280;60343;-32.030;115.880;2023-04-15T12:30:27;102101.13;;;18.06;77.64
72370;BME280;60343;-32.030;115.880;2023-04-15T12:33:03;102097.34;;;18.07;78.30
72370;BME280;60343;-32.030;115.880;2023-04-15T12:35:38;102096.72;;;18.05;79.03
72370;BME280;60343;-32.030;115.880;2023-04-15T12:38:13;102098.94;;;18.01;79.16
72370;BME280;60343;-32.030;115.880;2023-04-15T12:40:54;102103.91;;;17.97;79.11
72370;BME280;60343;-32.030;115.880;2023-04-15T12:43:28;102099.91;;;17.93;80.17
72370;BME280;60343;-32.030;115.880;2023-04-15T12:46:06;102106.34;;;17.92;80.59
72370;BME280;60343;-32.030;115.880;2023-04-15T12:48:41;102107.19;;;17.93;81.54
72370;BME280;60343;-32.030;115.880;2023-04-15T12:51:15;102109.91;;;17.93;81.14
72370;BME280;60343;-32.030;115.880;2023-04-15T12:53:51;102113.44;;;17.93;81.60
72370;BME280;60343;-32.030;115.880;2023-04-15T12:56:31;102111.41;;;17.95;80.87
72370;BME280;60343;-32.030;115.880;2023-04-15T12:59:05;102110.75;;;17.93;81.28
72370;BME280;60343;-32.030;115.880;2023-04-15T13:01:40;102106.34;;;17.92;81.28
72370;BME280;60343;-32.030;115.880;2023-04-15T13:04:15;102103.06;;;17.97;81.42
72370;BME280;60343;-32.030;115.880;2023-04-15T13:06:50;102097.47;;;17.98;82.07
72370;BME280;60343;-32.030;115.880;2023-04-15T13:09:25;102104.84;;;18.05;81.25